sensor_id;sensor_type;location;lat;lon;timestamp;temperature;humidity
72646;DHT22;60687;53.876;10.674;2024-03-07T00:06:09;5.00;99.90
72646;DHT22;60687;53.876;10.674;2024-03-07T00:16:15;4.90;99.90
72646;DHT22;60687;53.876;10.674;2024-03-07T00:26:19;5.00;99.90
72646;DHT22;60687;53.876;10.674;2024-03-07T00:36:23;5.00;99.90
72646;DHT22;60687;53.876;10.674;2024-03-07T00:46:26;4.90;99.90
72646;DHT22;60687;53.876;10.674;2024-03-07T00:56:30;4.90;99.90
72646;DHT22;60687;53.876;10.674;2024-03-07T01:06:33;4.90;99.90
72646;DHT22;60687;53.876;10.674;2024-03-07T01:16:40;4.80;99.90
72646;DHT22;60687;53.876;10.674;2024-03-07T01:26:43;4.80;99.90
72646;DHT22;60687;53.876;10.674;2024-03-07T01:36:48;4.70;99.90
72646;DHT22;60687;53.876;10.674;2024-03-07T01:46:53;4.60;99.90
72646;DHT22;60687;53.876;10.674;2024-03-07T01:56:57;4.60;99.90
72646;DHT22;60687;53.876;10.674;2024-03-07T02:07:00;4.50;99.90
72646;DHT22;60687;53.876;10.674;2024-03-07T02:17:04;4.40;99.90
72646;DHT22;60687;53.876;10.674;2024-03-07T02:27:09;4.40;99.90
72646;DHT22;60687;53.876;10.674;2024-03-07T02:37:12;4.40;99.90
72646;DHT22;60687;53.876;10.674;2024-03-07T02:47:16;4.30;99.90
72646;DHT22;60687;53.876;10.674;2024-03-07T02:57:18;4.20;99.90
72646;DHT22;60687;53.876;10.674;2024-03-07T03:07:22;4.00;99.90
72646;DHT22;60687;53.876;10.674;2024-03-07T03:17:25;3.90;99.90
72646;DHT22;60687;53.876;10.674;2024-03-07T03:27:29;3.80;99.90
72646;DHT22;60687;53.876;10.674;2024-03-07T03:37:33;3.70;99.90
72646;DHT22;60687;53.876;10.674;2024-03-07T03:47:38;3.60;99.80
72646;DHT22;60687;53.876;10.674;2024-03-07T03:57:42;3.50;99.90
72646;DHT22;60687;53.876;10.674;2024-03-07T04:07:46;3.40;99.90
72646;DHT22;60687;53.876;10.674;2024-03-07T04:17:49;3.50;99.90
72646;DHT22;60687;53.876;10.674;2024-03-07T04:27:53;3.40;99.80
72646;DHT22;60687;53.876;10.674;2024-03-07T04:37:56;3.30;99.50
72646;DHT22;60687;53.876;10.674;2024-03-07T04:48:00;3.30;99.40
72646;DHT22;60687;53.876;10.674;2024-03-07T04:58:04;3.20;99.40
72646;DHT22;60687;53.876;10.674;2024-03-07T05:08:13;3.10;99.10
72646;DHT22;60687;53.876;10.674;2024-03-07T05:18:16;3.10;99.60
72646;DHT22;60687;53.876;10.674;2024-03-07T05:28:21;3.20;99.80
72646;DHT22;60687;53.876;10.674;2024-03-07T05:38:24;3.20;99.80
72646;DHT22;60687;53.876;10.674;2024-03-07T05:48:31;3.20;99.90
72646;DHT22;60687;53.876;10.674;2024-03-07T05:58:34;3.20;99.80
72646;DHT22;60687;53.876;10.674;2024-03-07T06:08:38;3.20;99.80
72646;DHT22;60687;53.876;10.674;2024-03-07T06:18:43;3.20;99.90
72646;DHT22;60687;53.876;10.674;2024-03-07T06:28:48;3.20;99.80
72646;DHT22;60687;53.876;10.674;2024-03-07T06:38:51;3.20;99.80
72646;DHT22;60687;53.876;10.674;2024-03-07T06:48:55;3.30;99.90
72646;DHT22;60687;53.876;10.674;2024-03-07T06:59:00;3.30;99.90
72646;DHT22;60687;53.876;10.674;2024-03-07T07:09:06;3.30;99.90
72646;DHT22;60687;53.876;10.674;2024-03-07T07:19:11;3.30;99.80
72646;DHT22;60687;53.876;10.674;2024-03-07T07:29:15;3.30;99.20
72646;DHT22;60687;53.876;10.674;2024-03-07T07:39:19;3.40;99.30
72646;DHT22;60687;53.876;10.674;2024-03-07T07:49:23;3.30;99.60
72646;DHT22;60687;53.876;10.674;2024-03-07T07:59:26;3.40;99.90
72646;DHT22;60687;53.876;10.674;2024-03-07T08:09:29;3.40;99.90
72646;DHT22;60687;53.876;10.674;2024-03-07T08:19:33;3.40;99.90
72646;DHT22;60687;53.876;10.674;2024-03-07T08:29:36;3.40;99.90
72646;DHT22;60687;53.876;10.674;2024-03-07T08:39:40;3.50;99.90
72646;DHT22;60687;53.876;10.674;2024-03-07T08:49:44;3.60;99.90
72646;DHT22;60687;53.876;10.674;2024-03-07T08:59:47;3.60;99.90
72646;DHT22;60687;53.876;10.674;2024-03-07T09:09:58;3.70;99.90
72646;DHT22;60687;53.876;10.674;2024-03-07T09:20:02;3.80;99.90
72646;DHT22;60687;53.876;10.674;2024-03-07T09:30:09;4.00;99.90
72646;DHT22;60687;53.876;10.674;2024-03-07T09:40:17;4.10;99.90
72646;DHT22;60687;53.876;10.674;2024-03-07T09:50:21;4.20;99.90
72646;DHT22;60687;53.876;10.674;2024-03-07T10:00:24;4.30;99.90
72646;DHT22;60687;53.876;10.674;2024-03-07T10:10:29;4.40;99.90
72646;DHT22;60687;53.876;10.674;2024-03-07T10:20:38;4.60;99.90
72646;DHT22;60687;53.876;10.674;2024-03-07T10:30:44;4.70;99.90
72646;DHT22;60687;53.876;10.674;2024-03-07T10:40:47;4.90;99.90
72646;DHT22;60687;53.876;10.674;2024-03-07T10:51:05;5.00;99.90
72646;DHT22;60687;53.876;10.674;2024-03-07T11:01:11;5.10;99.90
72646;DHT22;60687;53.876;10.674;2024-03-07T11:11:18;5.30;99.30
72646;DHT22;60687;53.876;10.674;2024-03-07T11:21:40;5.50;99.00
72646;DHT22;60687;53.876;10.674;2024-03-07T11:31:45;5.70;97.90
72646;DHT22;60687;53.876;10.674;2024-03-07T11:41:49;5.80;97.80
72646;DHT22;60687;53.876;10.674;2024-03-07T11:51:53;5.90;98.20
72646;DHT22;60687;53.876;10.674;2024-03-07T12:01:56;6.00;98.30
72646;DHT22;60687;53.876;10.674;2024-03-07T12:12:10;6.10;98.20
72646;DHT22;60687;53.876;10.674;2024-03-07T12:22:13;6.20;98.30
72646;DHT22;60687;53.876;10.674;2024-03-07T12:32:24;6.30;97.60
72646;DHT22;60687;53.876;10.674;2024-03-07T12:42:28;6.40;97.20
72646;DHT22;60687;53.876;10.674;2024-03-07T12:52:34;6.60;97.20
72646;DHT22;60687;53.876;10.674;2024-03-07T13:02:37;6.60;96.70
72646;DHT22;60687;53.876;10.674;2024-03-07T13:12:44;6.60;96.50
72646;DHT22;60687;53.876;10.674;2024-03-07T13:23:02;6.70;96.50
72646;DHT22;60687;53.876;10.674;2024-03-07T13:33:26;6.80;96.60
72646;DHT22;60687;53.876;10.674;2024-03-07T13:43:32;6.80;96.20
72646;DHT22;60687;53.876;10.674;2024-03-07T13:53:38;6.80;95.80
72646;DHT22;60687;53.876;10.674;2024-03-07T14:25:19;6.90;95.40
72646;DHT22;60687;53.876;10.674;2024-03-07T14:35:31;7.00;95.80
72646;DHT22;60687;53.876;10.674;2024-03-07T14:45:36;6.90;95.50
72646;DHT22;60687;53.876;10.674;2024-03-07T14:55:44;6.90;95.80
72646;DHT22;60687;53.876;10.674;2024-03-07T15:05:47;7.00;94.70
72646;DHT22;60687;53.876;10.674;2024-03-07T15:15:51;7.00;94.50
72646;DHT22;60687;53.876;10.674;2024-03-07T15:25:56;7.00;93.40
72646;DHT22;60687;53.876;10.674;2024-03-07T15:36:00;6.90;93.50
72646;DHT22;60687;53.876;10.674;2024-03-07T15:46:04;6.90;93.80
72646;DHT22;60687;53.876;10.674;2024-03-07T15:56:11;6.80;94.10
72646;DHT22;60687;53.876;10.674;2024-03-07T16:06:16;6.70;94.30
72646;DHT22;60687;53.876;10.674;2024-03-07T16:16:21;6.60;95.10
72646;DHT22;60687;53.876;10.674;2024-03-07T16:26:24;6.50;95.70
72646;DHT22;60687;53.876;10.674;2024-03-07T16:36:29;6.40;96.10
72646;DHT22;60687;53.876;10.674;2024-03-07T16:46:34;6.30;96.60
72646;DHT22;60687;53.876;10.674;2024-03-07T16:56:40;6.30;97.60
72646;DHT22;60687;53.876;10.674;2024-03-07T17:06:46;6.10;97.60
72646;DHT22;60687;53.876;10.674;2024-03-07T17:16:53;6.00;98.00
72646;DHT22;60687;53.876;10.674;2024-03-07T17:26:58;5.90;98.40
72646;DHT22;60687;53.876;10.674;2024-03-07T17:37:02;5.80;98.90
72646;DHT22;60687;53.876;10.674;2024-03-07T17:47:07;5.70;99.50
72646;DHT22;60687;53.876;10.674;2024-03-07T17:57:13;5.60;99.80
72646;DHT22;60687;53.876;10.674;2024-03-07T18:07:16;5.50;99.90
72646;DHT22;60687;53.876;10.674;2024-03-07T18:17:23;5.40;99.90
72646;DHT22;60687;53.876;10.674;2024-03-07T18:27:26;5.40;99.90
72646;DHT22;60687;53.876;10.674;2024-03-07T18:37:34;5.30;99.90
72646;DHT22;60687;53.876;10.674;2024-03-07T18:47:39;5.20;99.90
72646;DHT22;60687;53.876;10.674;2024-03-07T18:57:48;5.10;99.90
72646;DHT22;60687;53.876;10.674;2024-03-07T19:07:51;5.00;99.90
72646;DHT22;60687;53.876;10.674;2024-03-07T19:17:57;5.00;99.90
72646;DHT22;60687;53.876;10.674;2024-03-07T19:28:01;4.90;99.90
72646;DHT22;60687;53.876;10.674;2024-03-07T19:38:10;4.80;99.90
72646;DHT22;60687;53.876;10.674;2024-03-07T19:48:15;4.70;99.90
72646;DHT22;60687;53.876;10.674;2024-03-07T19:58:21;4.60;99.90
72646;DHT22;60687;53.876;10.674;2024-03-07T20:08:28;4.60;99.90
72646;DHT22;60687;53.876;10.674;2024-03-07T20:18:32;4.50;99.90
72646;DHT22;60687;53.876;10.674;2024-03-07T20:28:42;4.50;99.90
72646;DHT22;60687;53.876;10.674;2024-03-07T20:38:46;4.40;99.90
72646;DHT22;60687;53.876;10.674;2024-03-07T20:48:49;4.30;99.50
72646;DHT22;60687;53.876;10.674;2024-03-07T20:58:54;4.20;99.20
72646;DHT22;60687;53.876;10.674;2024-03-07T21:08:57;4.10;98.50
72646;DHT22;60687;53.876;10.674;2024-03-07T21:19:04;4.00;98.30
72646;DHT22;60687;53.876;10.674;2024-03-07T21:29:08;4.00;98.10
72646;DHT22;60687;53.876;10.674;2024-03-07T21:39:13;3.90;98.10
72646;DHT22;60687;53.876;10.674;2024-03-07T21:49:16;3.80;98.20
72646;DHT22;60687;53.876;10.674;2024-03-07T21:59:20;3.70;97.90
72646;DHT22;60687;53.876;10.674;2024-03-07T22:09:24;3.60;98.00
72646;DHT22;60687;53.876;10.674;2024-03-07T22:19:29;3.50;97.80
72646;DHT22;60687;53.876;10.674;2024-03-07T22:29:33;3.40;97.90
72646;DHT22;60687;53.876;10.674;2024-03-07T22:39:39;3.30;98.20
72646;DHT22;60687;53.876;10.674;2024-03-07T22:49:47;3.20;98.70
72646;DHT22;60687;53.876;10.674;2024-03-07T22:59:51;3.20;98.90
72646;DHT22;60687;53.876;10.674;2024-03-07T23:09:55;3.10;98.90
72646;DHT22;60687;53.876;10.674;2024-03-07T23:20:01;3.00;99.50
72646;DHT22;60687;53.876;10.674;2024-03-07T23:30:07;2.90;99.90
72646;DHT22;60687;53.876;10.674;2024-03-07T23:40:15;2.90;99.90
72646;DHT22;60687;53.876;10.674;2024-03-07T23:50:24;2.80;99.90
